sensor_id;sensor_type;location;lat;lon;timestamp;P1;durP1;ratioP1;P2;durP2;ratioP2
29196;SDS011;62796;42.654;23.316;2023-04-06T00:00:48;15.63;;;10.18;;
29196;SDS011;62796;42.654;23.316;2023-04-06T00:03:14;13.52;;;9.68;;
29196;SDS011;62796;42.654;23.316;2023-04-06T00:05:40;14.35;;;10.05;;
29196;SDS011;62796;42.654;23.316;2023-04-06T00:08:06;13.27;;;9.88;;
29196;SDS011;62796;42.654;23.316;2023-04-06T00:10:31;16.02;;;9.88;;
29196;SDS011;62796;42.654;23.316;2023-04-06T00:12:57;13.27;;;9.35;;
29196;SDS011;62796;42.654;23.316;2023-04-06T00:15:24;12.55;;;9.23;;
29196;SDS011;62796;42.654;23.316;2023-04-06T00:17:50;12.63;;;8.50;;
29196;SDS011;62796;42.654;23.316;2023-04-06T00:20:15;11.75;;;8.55;;
29196;SDS011;62796;42.654;23.316;2023-04-06T00:22:41;12.15;;;8.75;;
29196;SDS011;62796;42.654;23.316;2023-04-06T00:25:08;13.77;;;8.85;;
29196;SDS011;62796;42.654;23.316;2023-04-06T00:27:35;14.10;;;9.27;;
29196;SDS011;62796;42.654;23.316;2023-04-06T00:30:00;13.48;;;8.38;;
29196;SDS011;62796;42.654;23.316;2023-04-06T00:32:26;14.27;;;9.05;;
29196;SDS011;62796;42.654;23.316;2023-04-06T00:34:52;17.10;;;9.90;;
29196;SDS011;62796;42.654;23.316;2023-04-06T00:37:18;13.85;;;9.60;;
29196;SDS011;62796;42.654;23.316;2023-04-06T00:39:44;14.90;;;9.23;;
29196;SDS011;62796;42.654;23.316;2023-04-06T00:42:12;14.02;;;8.98;;
29196;SDS011;62796;42.654;23.316;2023-04-06T00:44:42;14.60;;;8.93;;
29196;SDS011;62796;42.654;23.316;2023-04-06T00:47:07;13.07;;;9.18;;
29196;SDS011;62796;42.654;23.316;2023-04-06T00:49:33;14.30;;;8.98;;
29196;SDS011;62796;42.654;23.316;2023-04-06T00:51:59;12.70;;;8.88;;
29196;SDS011;62796;42.654;23.316;2023-04-06T00:54:26;16.10;;;10.00;;
29196;SDS011;62796;42.654;23.316;2023-04-06T00:56:52;13.82;;;10.25;;
29196;SDS011;62796;42.654;23.316;2023-04-06T00:59:17;15.52;;;9.82;;
29196;SDS011;62796;42.654;23.316;2023-04-06T01:01:43;15.30;;;9.52;;
29196;SDS011;62796;42.654;23.316;2023-04-06T01:04:09;12.27;;;9.40;;
29196;SDS011;62796;42.654;23.316;2023-04-06T01:06:35;14.88;;;10.13;;
29196;SDS011;62796;42.654;23.316;2023-04-06T01:09:00;13.60;;;10.18;;
29196;SDS011;62796;42.654;23.316;2023-04-06T01:11:26;13.52;;;9.50;;
29196;SDS011;62796;42.654;23.316;2023-04-06T01:13:52;15.50;;;10.23;;
29196;SDS011;62796;42.654;23.316;2023-04-06T01:16:18;15.93;;;10.00;;
29196;SDS011;62796;42.654;23.316;2023-04-06T01:18:43;13.18;;;9.57;;
29196;SDS011;62796;42.654;23.316;2023-04-06T01:21:09;14.00;;;10.10;;
29196;SDS011;62796;42.654;23.316;2023-04-06T01:23:41;15.82;;;10.43;;
29196;SDS011;62796;42.654;23.316;2023-04-06T01:26:08;16.17;;;10.05;;
29196;SDS011;62796;42.654;23.316;2023-04-06T01:28:33;15.18;;;10.27;;
29196;SDS011;62796;42.654;23.316;2023-04-06T01:30:59;15.02;;;10.15;;
29196;SDS011;62796;42.654;23.316;2023-04-06T01:33:25;15.00;;;10.27;;
29196;SDS011;62796;42.654;23.316;2023-04-06T01:35:50;16.60;;;10.18;;
29196;SDS011;62796;42.654;23.316;2023-04-06T01:38:16;15.73;;;10.20;;
29196;SDS011;62796;42.654;23.316;2023-04-06T01:40:41;15.25;;;10.23;;
29196;SDS011;62796;42.654;23.316;2023-04-06T01:43:06;16.40;;;10.82;;
29196;SDS011;62796;42.654;23.316;2023-04-06T01:45:32;17.48;;;11.35;;
29196;SDS011;62796;42.654;23.316;2023-04-06T01:47:57;16.25;;;10.88;;
29196;SDS011;62796;42.654;23.316;2023-04-06T01:50:23;17.60;;;11.10;;
29196;SDS011;62796;42.654;23.316;2023-04-06T01:52:48;16.42;;;10.93;;
29196;SDS011;62796;42.654;23.316;2023-04-06T01:55:13;16.13;;;10.80;;
29196;SDS011;62796;42.654;23.316;2023-04-06T01:57:39;15.80;;;10.50;;
29196;SDS011;62796;42.654;23.316;2023-04-06T02:00:05;13.50;;;9.50;;
29196;SDS011;62796;42.654;23.316;2023-04-06T02:02:31;15.93;;;10.00;;
29196;SDS011;62796;42.654;23.316;2023-04-06T02:04:56;15.60;;;10.25;;
29196;SDS011;62796;42.654;23.316;2023-04-06T02:07:22;14.00;;;9.82;;
29196;SDS011;62796;42.654;23.316;2023-04-06T02:09:47;13.55;;;9.15;;
29196;SDS011;62796;42.654;23.316;2023-04-06T02:12:12;13.63;;;10.00;;
29196;SDS011;62796;42.654;23.316;2023-04-06T02:14:38;13.77;;;9.35;;
29196;SDS011;62796;42.654;23.316;2023-04-06T02:17:03;13.50;;;9.57;;
29196;SDS011;62796;42.654;23.316;2023-04-06T02:19:29;16.40;;;9.40;;
29196;SDS011;62796;42.654;23.316;2023-04-06T02:21:54;13.65;;;9.68;;
29196;SDS011;62796;42.654;23.316;2023-04-06T02:24:20;16.05;;;9.38;;
29196;SDS011;62796;42.654;23.316;2023-04-06T02:26:46;13.68;;;9.95;;
29196;SDS011;62796;42.654;23.316;2023-04-06T02:29:11;12.75;;;9.13;;
29196;SDS011;62796;42.654;23.316;2023-04-06T02:31:36;13.38;;;8.93;;
29196;SDS011;62796;42.654;23.316;2023-04-06T02:34:02;13.73;;;9.40;;
29196;SDS011;62796;42.654;23.316;2023-04-06T02:36:27;14.82;;;9.50;;
29196;SDS011;62796;42.654;23.316;2023-04-06T02:38:53;15.48;;;9.35;;
29196;SDS011;62796;42.654;23.316;2023-04-06T02:41:18;13.95;;;8.75;;
29196;SDS011;62796;42.654;23.316;2023-04-06T02:43:44;13.07;;;8.75;;
29196;SDS011;62796;42.654;23.316;2023-04-06T02:46:09;11.63;;;8.60;;
29196;SDS011;62796;42.654;23.316;2023-04-06T02:48:35;13.85;;;9.40;;
29196;SDS011;62796;42.654;23.316;2023-04-06T02:51:02;12.45;;;8.95;;
29196;SDS011;62796;42.654;23.316;2023-04-06T02:53:27;14.13;;;9.02;;
29196;SDS011;62796;42.654;23.316;2023-04-06T02:55:53;12.23;;;8.13;;
29196;SDS011;62796;42.654;23.316;2023-04-06T02:58:18;15.15;;;9.63;;
29196;SDS011;62796;42.654;23.316;2023-04-06T03:00:43;14.20;;;9.35;;
29196;SDS011;62796;42.654;23.316;2023-04-06T03:03:09;12.88;;;9.30;;
29196;SDS011;62796;42.654;23.316;2023-04-06T03:05:34;13.80;;;9.25;;
29196;SDS011;62796;42.654;23.316;2023-04-06T03:08:00;14.40;;;9.70;;
29196;SDS011;62796;42.654;23.316;2023-04-06T03:10:25;15.52;;;10.82;;
29196;SDS011;62796;42.654;23.316;2023-04-06T03:12:51;14.82;;;10.18;;
29196;SDS011;62796;42.654;23.316;2023-04-06T03:15:16;14.55;;;10.20;;
29196;SDS011;62796;42.654;23.316;2023-04-06T03:17:42;15.27;;;9.82;;
29196;SDS011;62796;42.654;23.316;2023-04-06T03:20:07;14.55;;;9.45;;
29196;SDS011;62796;42.654;23.316;2023-04-06T03:22:33;13.60;;;9.45;;
29196;SDS011;62796;42.654;23.316;2023-04-06T03:24:59;15.05;;;9.52;;
29196;SDS011;62796;42.654;23.316;2023-04-06T03:27:24;15.40;;;10.60;;
29196;SDS011;62796;42.654;23.316;2023-04-06T03:29:50;15.07;;;9.75;;
29196;SDS011;62796;42.654;23.316;2023-04-06T03:32:15;17.30;;;10.07;;
29196;SDS011;62796;42.654;23.316;2023-04-06T03:34:41;14.07;;;9.48;;
29196;SDS011;62796;42.654;23.316;2023-04-06T03:37:06;13.85;;;9.25;;
29196;SDS011;62796;42.654;23.316;2023-04-06T03:39:31;11.65;;;8.82;;
29196;SDS011;62796;42.654;23.316;2023-04-06T03:41:57;15.70;;;9.10;;
29196;SDS011;62796;42.654;23.316;2023-04-06T03:44:22;14.07;;;9.43;;
29196;SDS011;62796;42.654;23.316;2023-04-06T03:46:48;15.30;;;9.45;;
29196;SDS011;62796;42.654;23.316;2023-04-06T03:49:13;12.80;;;8.40;;
29196;SDS011;62796;42.654;23.316;2023-04-06T03:51:39;14.80;;;9.25;;
29196;SDS011;62796;42.654;23.316;2023-04-06T03:54:05;14.35;;;8.88;;
29196;SDS011;62796;42.654;23.316;2023-04-06T03:56:30;13.43;;;9.07;;
29196;SDS011;62796;42.654;23.316;2023-04-06T03:58:56;16.58;;;8.88;;
29196;SDS011;62796;42.654;23.316;2023-04-06T04:01:21;12.43;;;8.85;;
29196;SDS011;62796;42.654;23.316;2023-04-06T04:03:47;12.70;;;8.00;;
29196;SDS011;62796;42.654;23.316;2023-04-06T04:06:12;11.30;;;8.80;;
29196;SDS011;62796;42.654;23.316;2023-04-06T04:08:38;12.18;;;7.43;;
29196;SDS011;62796;42.654;23.316;2023-04-06T04:11:03;15.65;;;8.73;;
29196;SDS011;62796;42.654;23.316;2023-04-06T04:13:29;10.57;;;7.75;;
29196;SDS011;62796;42.654;23.316;2023-04-06T04:15:54;11.40;;;7.80;;
29196;SDS011;62796;42.654;23.316;2023-04-06T04:18:20;12.45;;;8.05;;
29196;SDS011;62796;42.654;23.316;2023-04-06T04:20:45;14.63;;;8.77;;
29196;SDS011;62796;42.654;23.316;2023-04-06T04:23:11;13.18;;;8.43;;
29196;SDS011;62796;42.654;23.316;2023-04-06T04:25:36;14.98;;;8.60;;
29196;SDS011;62796;42.654;23.316;2023-04-06T04:28:02;14.13;;;8.57;;
29196;SDS011;62796;42.654;23.316;2023-04-06T04:30:27;14.00;;;8.70;;
29196;SDS011;62796;42.654;23.316;2023-04-06T04:32:53;13.43;;;8.85;;
29196;SDS011;62796;42.654;23.316;2023-04-06T04:35:18;13.15;;;8.25;;
29196;SDS011;62796;42.654;23.316;2023-04-06T04:37:44;16.73;;;9.25;;
29196;SDS011;62796;42.654;23.316;2023-04-06T04:40:10;20.10;;;9.35;;
29196;SDS011;62796;42.654;23.316;2023-04-06T04:42:36;16.33;;;9.02;;
29196;SDS011;62796;42.654;23.316;2023-04-06T04:45:01;15.05;;;9.55;;
29196;SDS011;62796;42.654;23.316;2023-04-06T04:47:27;16.60;;;10.07;;
29196;SDS011;62796;42.654;23.316;2023-04-06T04:49:52;16.15;;;9.57;;
29196;SDS011;62796;42.654;23.316;2023-04-06T04:52:18;16.55;;;9.35;;
29196;SDS011;62796;42.654;23.316;2023-04-06T04:54:43;16.45;;;9.25;;
29196;SDS011;62796;42.654;23.316;2023-04-06T04:57:09;14.23;;;7.93;;
29196;SDS011;62796;42.654;23.316;2023-04-06T04:59:34;18.30;;;8.63;;
29196;SDS011;62796;42.654;23.316;2023-04-06T05:02:00;20.27;;;10.05;;
29196;SDS011;62796;42.654;23.316;2023-04-06T05:04:26;13.50;;;8.82;;
29196;SDS011;62796;42.654;23.316;2023-04-06T05:07:01;14.60;;;9.70;;
29196;SDS011;62796;42.654;23.316;2023-04-06T05:09:29;15.90;;;9.30;;
29196;SDS011;62796;42.654;23.316;2023-04-06T05:11:55;12.93;;;8.80;;
29196;SDS011;62796;42.654;23.316;2023-04-06T05:14:21;16.55;;;9.15;;
29196;SDS011;62796;42.654;23.316;2023-04-06T05:16:46;17.20;;;9.48;;
29196;SDS011;62796;42.654;23.316;2023-04-06T05:19:12;17.77;;;10.07;;
29196;SDS011;62796;42.654;23.316;2023-04-06T05:21:37;15.80;;;10.68;;
29196;SDS011;62796;42.654;23.316;2023-04-06T05:24:03;16.02;;;9.88;;
29196;SDS011;62796;42.654;23.316;2023-04-06T05:26:28;24.15;;;11.40;;
29196;SDS011;62796;42.654;23.316;2023-04-06T05:28:54;22.90;;;12.45;;
29196;SDS011;62796;42.654;23.316;2023-04-06T05:31:20;21.05;;;12.30;;
29196;SDS011;62796;42.654;23.316;2023-04-06T05:33:45;24.00;;;12.52;;
29196;SDS011;62796;42.654;23.316;2023-04-06T05:36:11;20.35;;;10.88;;
29196;SDS011;62796;42.654;23.316;2023-04-06T05:38:36;21.27;;;10.60;;
29196;SDS011;62796;42.654;23.316;2023-04-06T05:41:02;18.33;;;11.43;;
29196;SDS011;62796;42.654;23.316;2023-04-06T05:43:27;17.25;;;10.95;;
29196;SDS011;62796;42.654;23.316;2023-04-06T05:45:53;18.08;;;11.00;;
29196;SDS011;62796;42.654;23.316;2023-04-06T05:48:18;17.30;;;11.15;;
29196;SDS011;62796;42.654;23.316;2023-04-06T05:50:47;20.27;;;12.02;;
29196;SDS011;62796;42.654;23.316;2023-04-06T05:53:14;26.27;;;12.32;;
29196;SDS011;62796;42.654;23.316;2023-04-06T05:55:40;17.17;;;11.02;;
29196;SDS011;62796;42.654;23.316;2023-04-06T05:58:06;41.50;;;12.43;;
29196;SDS011;62796;42.654;23.316;2023-04-06T06:00:31;25.38;;;11.63;;
29196;SDS011;62796;42.654;23.316;2023-04-06T06:02:57;27.08;;;12.02;;
29196;SDS011;62796;42.654;23.316;2023-04-06T06:05:23;32.97;;;13.70;;
29196;SDS011;62796;42.654;23.316;2023-04-06T06:07:48;25.42;;;12.88;;
29196;SDS011;62796;42.654;23.316;2023-04-06T06:10:14;19.45;;;11.43;;
29196;SDS011;62796;42.654;23.316;2023-04-06T06:12:40;41.60;;;14.18;;
29196;SDS011;62796;42.654;23.316;2023-04-06T06:15:06;20.42;;;11.80;;
29196;SDS011;62796;42.654;23.316;2023-04-06T06:17:32;31.48;;;13.30;;
29196;SDS011;62796;42.654;23.316;2023-04-06T06:19:57;24.40;;;11.40;;
29196;SDS011;62796;42.654;23.316;2023-04-06T06:22:23;23.10;;;12.13;;
29196;SDS011;62796;42.654;23.316;2023-04-06T06:24:48;26.63;;;14.40;;
29196;SDS011;62796;42.654;23.316;2023-04-06T06:27:15;19.90;;;11.88;;
29196;SDS011;62796;42.654;23.316;2023-04-06T06:29:41;21.60;;;11.07;;
29196;SDS011;62796;42.654;23.316;2023-04-06T06:32:06;24.15;;;11.07;;
29196;SDS011;62796;42.654;23.316;2023-04-06T06:34:34;17.73;;;10.10;;
29196;SDS011;62796;42.654;23.316;2023-04-06T06:37:00;20.30;;;11.70;;
29196;SDS011;62796;42.654;23.316;2023-04-06T06:39:27;15.75;;;10.95;;
29196;SDS011;62796;42.654;23.316;2023-04-06T06:41:52;22.25;;;12.15;;
29196;SDS011;62796;42.654;23.316;2023-04-06T06:44:20;33.25;;;14.60;;
29196;SDS011;62796;42.654;23.316;2023-04-06T06:46:46;34.28;;;12.57;;
29196;SDS011;62796;42.654;23.316;2023-04-06T06:49:12;16.08;;;10.85;;
29196;SDS011;62796;42.654;23.316;2023-04-06T06:51:39;37.50;;;14.02;;
29196;SDS011;62796;42.654;23.316;2023-04-06T06:54:08;23.42;;;13.32;;
29196;SDS011;62796;42.654;23.316;2023-04-06T06:56:33;25.63;;;13.48;;
29196;SDS011;62796;42.654;23.316;2023-04-06T06:59:00;28.15;;;13.27;;
29196;SDS011;62796;42.654;23.316;2023-04-06T07:01:26;29.15;;;13.32;;
29196;SDS011;62796;42.654;23.316;2023-04-06T07:03:51;38.17;;;14.07;;
29196;SDS011;62796;42.654;23.316;2023-04-06T07:06:17;50.90;;;15.95;;
29196;SDS011;62796;42.654;23.316;2023-04-06T07:08:42;50.97;;;17.45;;
29196;SDS011;62796;42.654;23.316;2023-04-06T07:11:08;47.13;;;16.13;;
29196;SDS011;62796;42.654;23.316;2023-04-06T07:13:33;34.45;;;13.93;;
29196;SDS011;62796;42.654;23.316;2023-04-06T07:15:58;48.70;;;15.80;;
29196;SDS011;62796;42.654;23.316;2023-04-06T07:18:25;57.30;;;15.30;;
29196;SDS011;62796;42.654;23.316;2023-04-06T07:20:50;45.10;;;15.35;;
29196;SDS011;62796;42.654;23.316;2023-04-06T07:23:16;38.40;;;13.38;;
29196;SDS011;62796;42.654;23.316;2023-04-06T07:25:41;28.60;;;11.65;;
29196;SDS011;62796;42.654;23.316;2023-04-06T07:28:07;50.92;;;15.13;;
29196;SDS011;62796;42.654;23.316;2023-04-06T07:30:32;24.55;;;11.52;;
29196;SDS011;62796;42.654;23.316;2023-04-06T07:32:58;22.95;;;10.68;;
29196;SDS011;62796;42.654;23.316;2023-04-06T07:35:26;48.05;;;12.88;;
29196;SDS011;62796;42.654;23.316;2023-04-06T07:37:52;17.67;;;10.60;;
29196;SDS011;62796;42.654;23.316;2023-04-06T07:40:19;20.17;;;10.90;;
29196;SDS011;62796;42.654;23.316;2023-04-06T07:42:45;15.02;;;10.15;;
29196;SDS011;62796;42.654;23.316;2023-04-06T07:45:11;19.13;;;11.35;;
29196;SDS011;62796;42.654;23.316;2023-04-06T07:47:36;30.27;;;13.23;;
29196;SDS011;62796;42.654;23.316;2023-04-06T07:50:02;34.30;;;13.63;;
29196;SDS011;62796;42.654;23.316;2023-04-06T07:52:28;65.32;;;17.42;;
29196;SDS011;62796;42.654;23.316;2023-04-06T07:54:53;35.80;;;14.70;;
29196;SDS011;62796;42.654;23.316;2023-04-06T07:57:19;25.10;;;12.90;;
29196;SDS011;62796;42.654;23.316;2023-04-06T07:59:44;21.70;;;12.82;;
29196;SDS011;62796;42.654;23.316;2023-04-06T08:02:10;19.00;;;12.27;;
29196;SDS011;62796;42.654;23.316;2023-04-06T08:04:35;23.63;;;13.65;;
29196;SDS011;62796;42.654;23.316;2023-04-06T08:07:01;25.25;;;13.75;;
29196;SDS011;62796;42.654;23.316;2023-04-06T08:09:26;19.63;;;11.82;;
29196;SDS011;62796;42.654;23.316;2023-04-06T08:11:52;18.80;;;12.25;;
29196;SDS011;62796;42.654;23.316;2023-04-06T08:14:18;19.05;;;12.30;;
29196;SDS011;62796;42.654;23.316;2023-04-06T08:16:43;24.23;;;13.18;;
29196;SDS011;62796;42.654;23.316;2023-04-06T08:19:09;32.70;;;15.10;;
29196;SDS011;62796;42.654;23.316;2023-04-06T08:21:35;41.83;;;15.50;;
29196;SDS011;62796;42.654;23.316;2023-04-06T08:24:01;19.67;;;11.80;;
29196;SDS011;62796;42.654;23.316;2023-04-06T08:26:27;17.67;;;11.77;;
29196;SDS011;62796;42.654;23.316;2023-04-06T08:28:53;22.30;;;12.55;;
29196;SDS011;62796;42.654;23.316;2023-04-06T08:31:19;41.95;;;14.20;;
29196;SDS011;62796;42.654;23.316;2023-04-06T08:33:44;48.60;;;15.57;;
29196;SDS011;62796;42.654;23.316;2023-04-06T08:36:11;25.08;;;12.18;;
29196;SDS011;62796;42.654;23.316;2023-04-06T08:38:38;23.98;;;10.85;;
29196;SDS011;62796;42.654;23.316;2023-04-06T08:41:08;14.88;;;9.90;;
29196;SDS011;62796;42.654;23.316;2023-04-06T08:43:40;22.20;;;10.15;;
29196;SDS011;62796;42.654;23.316;2023-04-06T08:46:11;21.60;;;10.27;;
29196;SDS011;62796;42.654;23.316;2023-04-06T08:48:40;18.02;;;10.63;;
29196;SDS011;62796;42.654;23.316;2023-04-06T08:51:08;16.25;;;9.20;;
29196;SDS011;62796;42.654;23.316;2023-04-06T08:53:35;16.98;;;9.93;;
29196;SDS011;62796;42.654;23.316;2023-04-06T08:56:00;15.90;;;9.20;;
29196;SDS011;62796;42.654;23.316;2023-04-06T08:58:28;14.93;;;9.40;;
29196;SDS011;62796;42.654;23.316;2023-04-06T09:00:58;37.60;;;10.98;;
29196;SDS011;62796;42.654;23.316;2023-04-06T09:03:24;25.63;;;12.23;;
29196;SDS011;62796;42.654;23.316;2023-04-06T09:05:52;18.77;;;9.93;;
29196;SDS011;62796;42.654;23.316;2023-04-06T09:08:17;48.88;;;15.52;;
29196;SDS011;62796;42.654;23.316;2023-04-06T09:10:43;30.17;;;12.27;;
29196;SDS011;62796;42.654;23.316;2023-04-06T09:13:08;23.30;;;10.90;;
29196;SDS011;62796;42.654;23.316;2023-04-06T09:15:34;15.40;;;10.85;;
29196;SDS011;62796;42.654;23.316;2023-04-06T09:18:00;22.23;;;10.68;;
29196;SDS011;62796;42.654;23.316;2023-04-06T09:20:26;43.30;;;13.65;;
29196;SDS011;62796;42.654;23.316;2023-04-06T09:22:53;32.85;;;14.02;;
29196;SDS011;62796;42.654;23.316;2023-04-06T09:25:20;30.00;;;12.70;;
29196;SDS011;62796;42.654;23.316;2023-04-06T09:27:48;19.92;;;11.23;;
29196;SDS011;62796;42.654;23.316;2023-04-06T09:30:22;18.13;;;12.05;;
29196;SDS011;62796;42.654;23.316;2023-04-06T09:32:50;17.90;;;11.20;;
29196;SDS011;62796;42.654;23.316;2023-04-06T09:35:17;16.77;;;10.77;;
29196;SDS011;62796;42.654;23.316;2023-04-06T09:37:45;16.92;;;10.73;;
29196;SDS011;62796;42.654;23.316;2023-04-06T09:40:12;16.75;;;10.75;;
29196;SDS011;62796;42.654;23.316;2023-04-06T09:42:40;15.48;;;10.07;;
29196;SDS011;62796;42.654;23.316;2023-04-06T09:45:06;20.25;;;11.13;;
29196;SDS011;62796;42.654;23.316;2023-04-06T09:47:32;16.90;;;10.88;;
29196;SDS011;62796;42.654;23.316;2023-04-06T09:50:00;15.65;;;11.20;;
29196;SDS011;62796;42.654;23.316;2023-04-06T09:52:37;15.80;;;9.27;;
29196;SDS011;62796;42.654;23.316;2023-04-06T09:55:05;15.15;;;9.70;;
29196;SDS011;62796;42.654;23.316;2023-04-06T09:57:46;17.58;;;9.77;;
29196;SDS011;62796;42.654;23.316;2023-04-06T10:00:21;14.98;;;10.80;;
29196;SDS011;62796;42.654;23.316;2023-04-06T10:03:09;14.05;;;10.02;;
29196;SDS011;62796;42.654;23.316;2023-04-06T10:05:57;14.57;;;9.80;;
29196;SDS011;62796;42.654;23.316;2023-04-06T10:08:29;17.00;;;10.13;;
29196;SDS011;62796;42.654;23.316;2023-04-06T10:10:57;14.80;;;10.50;;
29196;SDS011;62796;42.654;23.316;2023-04-06T10:13:25;12.95;;;9.27;;
29196;SDS011;62796;42.654;23.316;2023-04-06T10:15:51;27.95;;;10.05;;
29196;SDS011;62796;42.654;23.316;2023-04-06T10:18:17;16.50;;;10.23;;
29196;SDS011;62796;42.654;23.316;2023-04-06T10:20:49;15.68;;;10.02;;
29196;SDS011;62796;42.654;23.316;2023-04-06T10:23:19;14.30;;;10.27;;
29196;SDS011;62796;42.654;23.316;2023-04-06T10:28:20;16.17;;;9.90;;
29196;SDS011;62796;42.654;23.316;2023-04-06T10:30:45;13.88;;;9.30;;
29196;SDS011;62796;42.654;23.316;2023-04-06T10:35:40;20.80;;;11.27;;
29196;SDS011;62796;42.654;23.316;2023-04-06T10:38:06;16.83;;;10.35;;
29196;SDS011;62796;42.654;23.316;2023-04-06T10:40:32;18.98;;;11.20;;
29196;SDS011;62796;42.654;23.316;2023-04-06T10:43:35;19.50;;;10.90;;
29196;SDS011;62796;42.654;23.316;2023-04-06T10:45:59;35.17;;;14.43;;
29196;SDS011;62796;42.654;23.316;2023-04-06T10:48:35;16.55;;;11.63;;
29196;SDS011;62796;42.654;23.316;2023-04-06T10:51:14;36.72;;;14.82;;
29196;SDS011;62796;42.654;23.316;2023-04-06T10:53:41;20.75;;;12.52;;
29196;SDS011;62796;42.654;23.316;2023-04-06T10:56:12;29.95;;;14.13;;
29196;SDS011;62796;42.654;23.316;2023-04-06T10:58:45;36.58;;;13.55;;
29196;SDS011;62796;42.654;23.316;2023-04-06T11:01:12;35.45;;;13.70;;
29196;SDS011;62796;42.654;23.316;2023-04-06T11:03:57;22.52;;;11.05;;
29196;SDS011;62796;42.654;23.316;2023-04-06T11:06:26;37.33;;;14.00;;
29196;SDS011;62796;42.654;23.316;2023-04-06T11:08:54;40.28;;;17.13;;
29196;SDS011;62796;42.654;23.316;2023-04-06T11:11:21;30.52;;;12.43;;
29196;SDS011;62796;42.654;23.316;2023-04-06T11:13:49;21.70;;;11.77;;
29196;SDS011;62796;42.654;23.316;2023-04-06T11:16:16;39.58;;;13.40;;
29196;SDS011;62796;42.654;23.316;2023-04-06T11:29:08;15.60;;;10.25;;
29196;SDS011;62796;42.654;23.316;2023-04-06T11:31:47;27.13;;;11.95;;
29196;SDS011;62796;42.654;23.316;2023-04-06T11:34:18;18.48;;;11.35;;
29196;SDS011;62796;42.654;23.316;2023-04-06T11:36:48;18.53;;;11.20;;
29196;SDS011;62796;42.654;23.316;2023-04-06T11:39:20;22.50;;;12.20;;
29196;SDS011;62796;42.654;23.316;2023-04-06T11:41:48;18.08;;;11.65;;
29196;SDS011;62796;42.654;23.316;2023-04-06T11:44:14;20.17;;;11.45;;
29196;SDS011;62796;42.654;23.316;2023-04-06T11:46:40;15.88;;;11.10;;
29196;SDS011;62796;42.654;23.316;2023-04-06T11:49:06;28.40;;;12.95;;
29196;SDS011;62796;42.654;23.316;2023-04-06T11:51:35;14.93;;;10.82;;
29196;SDS011;62796;42.654;23.316;2023-04-06T11:54:00;45.97;;;13.70;;
29196;SDS011;62796;42.654;23.316;2023-04-06T11:56:29;34.60;;;12.82;;
29196;SDS011;62796;42.654;23.316;2023-04-06T11:58:55;46.83;;;13.63;;
29196;SDS011;62796;42.654;23.316;2023-04-06T12:01:23;30.05;;;13.10;;
29196;SDS011;62796;42.654;23.316;2023-04-06T12:03:49;44.50;;;14.25;;
29196;SDS011;62796;42.654;23.316;2023-04-06T12:06:16;27.42;;;11.98;;
29196;SDS011;62796;42.654;23.316;2023-04-06T12:08:42;20.23;;;11.65;;
29196;SDS011;62796;42.654;23.316;2023-04-06T12:11:07;21.45;;;11.75;;
29196;SDS011;62796;42.654;23.316;2023-04-06T12:13:33;13.05;;;9.25;;
29196;SDS011;62796;42.654;23.316;2023-04-06T12:15:58;14.85;;;9.93;;
29196;SDS011;62796;42.654;23.316;2023-04-06T12:18:24;20.42;;;11.48;;
29196;SDS011;62796;42.654;23.316;2023-04-06T12:20:50;169.73;;;21.00;;
29196;SDS011;62796;42.654;23.316;2023-04-06T12:23:17;16.42;;;9.98;;
29196;SDS011;62796;42.654;23.316;2023-04-06T12:25:42;75.30;;;17.40;;
29196;SDS011;62796;42.654;23.316;2023-04-06T12:28:08;60.85;;;16.27;;
29196;SDS011;62796;42.654;23.316;2023-04-06T12:30:37;35.35;;;12.70;;
29196;SDS011;62796;42.654;23.316;2023-04-06T12:33:02;43.60;;;14.38;;
29196;SDS011;62796;42.654;23.316;2023-04-06T12:35:28;45.53;;;14.32;;
29196;SDS011;62796;42.654;23.316;2023-04-06T12:37:53;19.10;;;11.45;;
29196;SDS011;62796;42.654;23.316;2023-04-06T12:40:19;28.67;;;13.55;;
29196;SDS011;62796;42.654;23.316;2023-04-06T12:42:46;24.90;;;12.27;;
29196;SDS011;62796;42.654;23.316;2023-04-06T12:45:11;20.95;;;12.07;;
29196;SDS011;62796;42.654;23.316;2023-04-06T12:47:37;17.58;;;12.63;;
29196;SDS011;62796;42.654;23.316;2023-04-06T12:50:04;19.55;;;11.45;;
29196;SDS011;62796;42.654;23.316;2023-04-06T12:52:31;30.63;;;13.02;;
29196;SDS011;62796;42.654;23.316;2023-04-06T12:54:59;22.50;;;11.40;;
29196;SDS011;62796;42.654;23.316;2023-04-06T12:57:25;17.67;;;11.07;;
29196;SDS011;62796;42.654;23.316;2023-04-06T12:59:51;18.80;;;11.77;;
29196;SDS011;62796;42.654;23.316;2023-04-06T13:02:17;21.40;;;11.82;;
29196;SDS011;62796;42.654;23.316;2023-04-06T13:04:45;16.63;;;10.45;;
29196;SDS011;62796;42.654;23.316;2023-04-06T13:07:10;32.58;;;13.07;;
29196;SDS011;62796;42.654;23.316;2023-04-06T13:09:35;21.27;;;11.25;;
29196;SDS011;62796;42.654;23.316;2023-04-06T13:12:01;20.25;;;11.90;;
29196;SDS011;62796;42.654;23.316;2023-04-06T13:14:26;17.30;;;12.60;;
29196;SDS011;62796;42.654;23.316;2023-04-06T13:16:52;43.25;;;16.75;;
29196;SDS011;62796;42.654;23.316;2023-04-06T13:19:17;30.45;;;12.55;;
29196;SDS011;62796;42.654;23.316;2023-04-06T13:21:43;33.00;;;13.55;;
29196;SDS011;62796;42.654;23.316;2023-04-06T13:24:08;46.88;;;14.50;;
29196;SDS011;62796;42.654;23.316;2023-04-06T13:26:35;47.13;;;14.70;;
29196;SDS011;62796;42.654;23.316;2023-04-06T13:29:01;36.10;;;13.25;;
29196;SDS011;62796;42.654;23.316;2023-04-06T13:31:27;28.17;;;11.35;;
29196;SDS011;62796;42.654;23.316;2023-04-06T13:33:53;15.27;;;10.93;;
29196;SDS011;62796;42.654;23.316;2023-04-06T13:36:18;17.17;;;10.80;;
29196;SDS011;62796;42.654;23.316;2023-04-06T13:38:44;23.67;;;12.25;;
29196;SDS011;62796;42.654;23.316;2023-04-06T13:41:16;20.02;;;10.90;;
29196;SDS011;62796;42.654;23.316;2023-04-06T13:43:43;14.18;;;10.05;;
29196;SDS011;62796;42.654;23.316;2023-04-06T13:46:08;20.88;;;12.52;;
29196;SDS011;62796;42.654;23.316;2023-04-06T13:48:34;21.98;;;12.98;;
29196;SDS011;62796;42.654;23.316;2023-04-06T13:51:07;20.90;;;12.32;;
29196;SDS011;62796;42.654;23.316;2023-04-06T13:53:34;19.33;;;11.48;;
29196;SDS011;62796;42.654;23.316;2023-04-06T13:55:59;16.50;;;10.35;;
29196;SDS011;62796;42.654;23.316;2023-04-06T13:58:24;18.25;;;10.82;;
29196;SDS011;62796;42.654;23.316;2023-04-06T14:00:50;19.20;;;12.15;;
29196;SDS011;62796;42.654;23.316;2023-04-06T14:03:16;16.17;;;10.93;;
29196;SDS011;62796;42.654;23.316;2023-04-06T14:05:41;16.20;;;11.23;;
29196;SDS011;62796;42.654;23.316;2023-04-06T14:08:07;17.10;;;11.85;;
29196;SDS011;62796;42.654;23.316;2023-04-06T14:10:36;23.38;;;12.25;;
29196;SDS011;62796;42.654;23.316;2023-04-06T14:13:02;20.00;;;12.40;;
29196;SDS011;62796;42.654;23.316;2023-04-06T14:15:28;19.30;;;11.50;;
29196;SDS011;62796;42.654;23.316;2023-04-06T14:17:54;17.23;;;11.10;;
29196;SDS011;62796;42.654;23.316;2023-04-06T14:20:20;17.05;;;11.50;;
29196;SDS011;62796;42.654;23.316;2023-04-06T14:22:46;19.45;;;10.90;;
29196;SDS011;62796;42.654;23.316;2023-04-06T14:25:11;16.25;;;11.20;;